Airfield :
LOGIN :

Register | Disclaimer

   EN    FR    IT 

 










Legend :    VFR   Marginal VFR   IFR   Intensive IFR   Very Intensive IFR
Visi :
Ceiling :
>= 8 km
>= 3000ft
5 to 8 km
1000 to 3000 ft
1500m to 5 km
500 to 1000 ft
800 to 1500m
200 to 500 ft
< 800m
< 200 ft
Symbols :   Thunderstorms  Fog  Heavy snow  Heavy precipitations  Wind > 20 kt
SIGMETs :     Misc.  Thunderstorms  Icing  Turbulence  Mountain Waves  Volcanic Ashes







- Airport Elevation : 466 ft


LHPA - Pápa

CURRENT METAR :
  • 201845Z 18008KT CAVOK 03/M03 Q1008 NOSIG RMK BLU

EXPIRED METARs :
  • 201815Z 18008KT CAVOK 03/M03 Q1008 NOSIG RMK BLU
  • 201745Z 19010KT CAVOK 04/M02 Q1009 NOSIG RMK BLU
  • 201715Z 19008KT CAVOK 04/M02 Q1009 NOSIG RMK BLU
  • 201645Z 19008KT CAVOK 03/M02 Q1010 NOSIG RMK BLU
  • 201615Z 19008KT CAVOK 04/M02 Q1009 NOSIG RMK BLU
  • 201545Z 19008KT CAVOK 05/M02 Q1010 NOSIG RMK BLU

TAF TAF LHPA
Valid from the 20 at 18:00 until the 21 at 18:00 UTC


201715Z 2018/2118 16012KT CAVOK
TEMPO 2020/2104 16014G24KT
PROB40
TEMPO 2100/2103 -RA -SNRA
BECMG 2103/2106 6000 -SN BKN010 OVC020
BECMG 2106/2108 VRB03KT
PROB40
TEMPO 2106/2113 3000 SN OVC010
BECMG 2109/2112 34012G22KT
BECMG 2113/2115 NSW
No reported NOTAMs for that airfield.



MET'MAP, your aeronautical weather chart ! - Copyright ORBIFLY December 2007 - Disclaimer

ORBIFLY MET'MAP TEAM :

Programming & Development : Alexandra Zaïnal
Concept & Development : Baudouin d'Aumeries
Co-Development & Prog : Marc-Olivier Méhu
Technical & hardware support : Manuel Goepfert

Contact : metmap@orbifly.com




SOURCES & CREDITS :

   NOAA